createdAt,value
2023-03-17T00:00:45.798Z,-3.43
2023-03-17T00:03:21.474Z,-3.47
2023-03-17T00:05:51.359Z,-4.27
2023-03-17T00:08:24.029Z,-3.50
2023-03-17T00:10:53.948Z,-4.25
2023-03-17T00:13:24.402Z,-3.69
2023-03-17T00:15:56.557Z,-3.95
2023-03-17T00:18:27.666Z,-3.83
2023-03-17T00:20:56.807Z,-3.59
2023-03-17T00:23:26.868Z,-3.63
2023-03-17T00:25:57.670Z,-3.93
2023-03-17T00:28:29.057Z,-3.92
2023-03-17T00:31:01.352Z,-3.95
2023-03-17T00:33:35.119Z,-4.04
2023-03-17T00:36:04.370Z,-3.67
2023-03-17T00:38:33.538Z,-4.48
2023-03-17T00:41:03.678Z,-4.34
2023-03-17T00:43:33.004Z,-3.71
2023-03-17T00:46:02.183Z,-3.73
2023-03-17T00:48:32.924Z,-3.77
2023-03-17T00:51:02.224Z,-3.72
2023-03-17T00:53:31.368Z,-4.63
2023-03-17T00:56:00.586Z,-4.50
2023-03-17T00:58:33.042Z,-4.12
2023-03-17T01:01:02.952Z,-3.56
2023-03-17T01:03:34.818Z,-3.74
2023-03-17T01:06:05.878Z,-3.48
2023-03-17T01:08:35.421Z,-3.69
2023-03-17T01:11:04.815Z,-3.93
2023-03-17T01:13:34.655Z,-3.61
2023-03-17T01:16:03.801Z,-3.34
2023-03-17T01:18:34.799Z,-3.79
2023-03-17T01:21:04.346Z,-3.29
2023-03-17T01:23:33.662Z,-3.28
2023-03-17T01:26:02.897Z,-3.84
2023-03-17T01:28:32.199Z,-3.93
2023-03-17T01:31:03.233Z,-4.24
2023-03-17T01:33:32.444Z,-3.48
2023-03-17T01:36:03.231Z,-3.14
2023-03-17T01:38:32.962Z,-4.12
2023-03-17T01:41:03.815Z,-3.03
2023-03-17T01:43:33.177Z,-3.59
2023-03-17T01:46:21.194Z,-3.56
2023-03-17T01:48:57.685Z,-3.33
2023-03-17T01:51:34.368Z,-2.98
2023-03-17T01:54:08.749Z,-3.82
2023-03-17T01:56:41.298Z,-2.55
2023-03-17T01:59:15.052Z,-2.75
2023-03-17T02:01:47.892Z,-2.93
2023-03-17T02:04:18.039Z,-3.01
2023-03-17T02:06:58.867Z,-3.00
2023-03-17T02:09:30.312Z,-2.35
2023-03-17T02:12:02.302Z,-2.31
2023-03-17T02:14:32.023Z,-2.26
2023-03-17T02:17:05.483Z,-2.29
2023-03-17T02:19:34.690Z,-3.62
2023-03-17T02:22:05.775Z,-2.12
2023-03-17T02:24:39.319Z,-2.33
2023-03-17T02:27:13.538Z,-2.20
2023-03-17T02:29:42.934Z,-2.06
2023-03-17T02:32:12.422Z,-2.08
2023-03-17T02:34:42.659Z,-2.25
2023-03-17T02:37:13.498Z,-1.93
2023-03-17T02:39:42.981Z,-1.91
2023-03-17T02:42:13.103Z,-1.82
2023-03-17T02:44:42.287Z,-2.04
2023-03-17T02:47:11.857Z,-1.74
2023-03-17T02:49:42.501Z,-1.89
2023-03-17T02:52:13.694Z,-1.74
2023-03-17T02:54:43.164Z,-1.65
2023-03-17T02:57:12.388Z,-1.52
2023-03-17T02:59:41.945Z,-1.53
2023-03-17T03:02:11.928Z,-1.39
2023-03-17T03:04:41.101Z,-1.34
2023-03-17T03:07:10.432Z,-1.33
2023-03-17T03:09:42.473Z,-1.21
2023-03-17T03:12:11.868Z,-1.10
2023-03-17T03:14:41.263Z,-1.08
2023-03-17T03:17:11.073Z,-0.99
2023-03-17T03:19:40.432Z,-0.97
2023-03-17T03:22:10.004Z,-0.86
2023-03-17T03:24:42.185Z,-0.73
2023-03-17T03:27:11.365Z,-0.67
2023-03-17T03:29:40.615Z,-0.61
2023-03-17T03:32:10.050Z,-0.57
2023-03-17T03:34:39.224Z,-0.54
2023-03-17T03:37:08.589Z,-0.52
2023-03-17T03:39:38.191Z,-0.47
2023-03-17T03:42:09.363Z,-0.41
2023-03-17T03:44:38.592Z,-0.47
2023-03-17T03:47:08.074Z,-0.36
2023-03-17T03:49:37.173Z,-0.27
2023-03-17T03:52:07.090Z,-0.24
2023-03-17T03:54:43.768Z,-0.25
2023-03-17T03:57:14.502Z,-0.20
2023-03-17T03:59:43.677Z,-0.19
2023-03-17T04:02:13.092Z,-0.25
2023-03-17T04:04:42.586Z,-0.16
2023-03-17T04:07:11.952Z,-0.11
2023-03-17T04:09:41.217Z,-0.29
2023-03-17T04:12:11.702Z,0.07
2023-03-17T04:14:42.820Z,0.00
2023-03-17T04:17:13.245Z,0.04
2023-03-17T04:19:53.099Z,-0.19
2023-03-17T04:22:22.598Z,-0.13
2023-03-17T04:24:51.846Z,0.41
2023-03-17T04:27:21.031Z,0.39
2023-03-17T04:29:51.687Z,0.57
2023-03-17T04:32:20.810Z,0.37
2023-03-17T04:34:50.053Z,0.67
2023-03-17T04:37:19.189Z,0.84
2023-03-17T04:39:48.263Z,0.65
2023-03-17T04:42:17.387Z,0.90
2023-03-17T04:44:46.638Z,1.13
2023-03-17T04:47:17.258Z,1.30
2023-03-17T04:49:46.567Z,1.27
2023-03-17T04:52:15.693Z,1.52
2023-03-17T04:54:44.782Z,1.53
2023-03-17T04:57:14.136Z,1.74
2023-03-17T04:59:43.270Z,1.75
2023-03-17T05:02:12.785Z,1.99
2023-03-17T05:04:45.620Z,2.07
2023-03-17T05:07:18.126Z,1.90
2023-03-17T05:09:47.832Z,2.19
2023-03-17T05:12:17.496Z,2.25
2023-03-17T05:14:47.051Z,2.15
2023-03-17T05:17:16.187Z,2.41
2023-03-17T05:19:47.384Z,2.42
2023-03-17T05:22:16.754Z,2.50
2023-03-17T05:24:46.117Z,2.51
2023-03-17T05:27:15.348Z,2.62
2023-03-17T05:29:44.487Z,2.68
2023-03-17T05:32:14.378Z,2.93
2023-03-17T05:34:43.638Z,3.02
2023-03-17T05:37:14.631Z,3.08
2023-03-17T05:39:44.124Z,3.10
2023-03-17T05:42:13.306Z,3.15
2023-03-17T05:44:42.586Z,3.04
2023-03-17T05:47:13.152Z,3.17
2023-03-17T05:49:42.383Z,3.03
2023-03-17T05:52:13.058Z,3.31
2023-03-17T05:54:42.461Z,3.37
2023-03-17T05:57:11.617Z,3.55
2023-03-17T05:59:40.800Z,3.68
2023-03-17T06:02:10.189Z,3.64
2023-03-17T06:04:39.473Z,3.73
2023-03-17T06:07:09.951Z,3.79
2023-03-17T06:09:40.577Z,3.93
2023-03-17T06:12:10.540Z,3.85
2023-03-17T06:14:39.655Z,4.00
2023-03-17T06:17:09.072Z,3.99
2023-03-17T06:19:38.209Z,4.10
2023-03-17T06:22:07.583Z,4.12
2023-03-17T06:24:36.982Z,4.05
2023-03-17T06:27:07.806Z,4.13
2023-03-17T06:29:36.954Z,4.13
2023-03-17T06:32:19.318Z,4.06
2023-03-17T06:34:49.937Z,4.19
2023-03-17T06:37:19.766Z,4.36
2023-03-17T06:39:50.232Z,4.41
2023-03-17T06:42:21.021Z,4.46
2023-03-17T06:44:53.240Z,4.48
2023-03-17T06:47:24.700Z,4.53
2023-03-17T06:49:55.154Z,4.58
2023-03-17T06:52:24.261Z,4.48
2023-03-17T06:54:59.574Z,4.64
2023-03-17T06:57:30.528Z,4.72
2023-03-17T06:59:59.716Z,4.85
2023-03-17T07:02:28.949Z,4.98
2023-03-17T07:04:59.608Z,4.71
2023-03-17T07:07:32.044Z,5.09
2023-03-17T07:10:04.279Z,5.01
2023-03-17T07:12:35.274Z,4.36
2023-03-17T07:15:04.480Z,5.23
2023-03-17T07:17:34.093Z,5.12
2023-03-17T07:20:03.204Z,5.30
2023-03-17T07:22:35.806Z,5.36
2023-03-17T07:25:05.328Z,5.44
2023-03-17T07:27:36.257Z,5.46
2023-03-17T07:30:07.004Z,5.42
2023-03-17T07:32:36.762Z,5.08
2023-03-17T07:35:06.619Z,4.83
2023-03-17T07:37:35.827Z,5.56
2023-03-17T07:40:05.383Z,5.58
2023-03-17T07:42:36.329Z,5.14
2023-03-17T07:45:06.582Z,5.32
2023-03-17T07:47:35.791Z,5.77
2023-03-17T07:50:07.236Z,5.96
2023-03-17T07:52:36.668Z,5.60
2023-03-17T07:55:11.790Z,5.43
2023-03-17T07:57:42.996Z,5.47
2023-03-17T08:00:14.124Z,5.51
2023-03-17T08:06:04.821Z,6.31
2023-03-17T08:08:34.607Z,6.36
2023-03-17T08:11:07.093Z,6.30
2023-03-17T08:13:38.116Z,6.27
2023-03-17T08:16:08.663Z,6.38
2023-03-17T08:18:38.704Z,6.22
2023-03-17T08:21:15.841Z,5.71
2023-03-17T08:23:46.223Z,5.59
2023-03-17T08:26:16.440Z,6.18
2023-03-17T08:28:47.486Z,6.38
2023-03-17T08:31:18.594Z,6.33
2023-03-17T08:33:49.616Z,6.57
2023-03-17T08:36:19.658Z,6.46
2023-03-17T08:38:50.453Z,5.44
2023-03-17T08:41:21.969Z,7.01
2023-03-17T08:43:53.546Z,7.40
2023-03-17T08:46:25.216Z,6.93
2023-03-17T08:48:58.172Z,8.15
2023-03-17T08:51:31.059Z,7.87
2023-03-17T08:54:30.188Z,7.49
2023-03-17T08:57:02.531Z,6.65
2023-03-17T08:59:37.468Z,8.18
2023-03-17T09:02:10.397Z,7.97
2023-03-17T09:04:41.680Z,8.40
2023-03-17T09:07:12.204Z,8.55
2023-03-17T09:09:41.865Z,8.32
2023-03-17T09:12:13.932Z,8.56
2023-03-17T09:14:47.416Z,8.73
2023-03-17T09:17:19.884Z,8.90
2023-03-17T09:19:50.383Z,8.35
2023-03-17T09:22:22.059Z,8.58
2023-03-17T09:24:51.744Z,8.61
2023-03-17T09:27:21.049Z,8.26
2023-03-17T09:29:51.675Z,8.59
2023-03-17T09:32:20.973Z,8.47
2023-03-17T09:34:53.106Z,8.82
2023-03-17T09:37:23.913Z,8.94
2023-03-17T09:39:53.309Z,9.20
2023-03-17T09:42:44.234Z,9.84
2023-03-17T09:45:29.621Z,9.92
2023-03-17T09:48:33.848Z,10.79
2023-03-17T09:51:07.177Z,11.24
2023-03-17T09:53:38.468Z,11.27
2023-03-17T09:56:14.155Z,11.18
2023-03-17T09:58:51.153Z,11.43
2023-03-17T10:01:24.858Z,11.70
2023-03-17T10:03:54.988Z,11.85
2023-03-17T10:06:35.233Z,11.88
2023-03-17T10:09:14.936Z,11.96
2023-03-17T10:11:49.088Z,11.87
2023-03-17T10:14:35.474Z,11.64
2023-03-17T10:17:15.938Z,12.00
2023-03-17T10:19:49.288Z,12.36
2023-03-17T10:22:25.684Z,12.65
2023-03-17T10:25:01.700Z,12.97
2023-03-17T10:27:36.669Z,13.08
2023-03-17T10:30:06.606Z,13.13
2023-03-17T10:32:41.495Z,13.43
2023-03-17T10:35:13.205Z,13.55
2023-03-17T10:37:43.918Z,13.17
2023-03-17T10:40:23.919Z,12.23
2023-03-17T10:42:57.527Z,11.51
2023-03-17T10:45:30.518Z,11.51
2023-03-17T10:48:03.103Z,12.04
2023-03-17T10:50:35.968Z,12.71
2023-03-17T10:53:09.983Z,13.29
2023-03-17T10:55:45.163Z,12.74
2023-03-17T10:58:19.061Z,12.53
2023-03-17T11:00:58.504Z,12.20
2023-03-17T11:03:34.252Z,11.69
2023-03-17T11:06:05.680Z,11.44
2023-03-17T11:08:37.087Z,11.07
2023-03-17T11:11:09.259Z,10.71
2023-03-17T11:13:38.951Z,10.11
2023-03-17T11:16:19.575Z,9.62
2023-03-17T11:18:54.086Z,9.07
2023-03-17T11:21:27.790Z,9.00
2023-03-17T11:24:06.320Z,9.20
2023-03-17T11:27:01.018Z,9.25
2023-03-17T11:29:46.915Z,8.98
2023-03-17T11:32:29.819Z,8.44
2023-03-17T11:35:18.475Z,8.37
2023-03-17T11:38:09.547Z,8.17
2023-03-17T11:40:49.446Z,7.98
2023-03-17T11:43:29.841Z,7.69
2023-03-17T11:46:06.447Z,7.34
2023-03-17T11:48:47.852Z,6.77
2023-03-17T11:51:30.894Z,6.83
2023-03-17T11:54:10.013Z,6.79
2023-03-17T11:56:47.257Z,6.53
2023-03-17T11:59:26.641Z,6.43
2023-03-17T12:02:03.203Z,6.25
2023-03-17T12:04:36.766Z,5.91
2023-03-17T12:07:21.167Z,5.62
2023-03-17T12:10:00.460Z,5.22
2023-03-17T12:12:35.907Z,5.05
2023-03-17T12:15:07.712Z,4.97
2023-03-17T12:17:41.101Z,4.81
2023-03-17T12:20:18.752Z,4.64
2023-03-17T12:22:57.126Z,4.47
2023-03-17T12:25:33.108Z,4.34
2023-03-17T12:28:03.632Z,4.19
2023-03-17T12:30:41.529Z,4.03
2023-03-17T12:33:21.774Z,3.74
2023-03-17T12:35:51.048Z,3.72
2023-03-17T12:38:27.601Z,2.45
2023-03-17T12:41:16.384Z,3.61
2023-03-17T12:43:58.182Z,3.08
2023-03-17T12:46:45.480Z,2.84
2023-03-17T12:49:50.421Z,2.56
2023-03-17T12:52:39.125Z,3.14
2023-03-17T12:55:15.511Z,2.49
2023-03-17T12:57:47.348Z,2.69
2023-03-17T13:00:27.508Z,2.34
2023-03-17T13:03:15.174Z,2.91
2023-03-17T13:05:49.313Z,2.78
2023-03-17T13:08:25.997Z,2.56
2023-03-17T13:11:18.331Z,1.60
2023-03-17T13:13:59.758Z,1.65
2023-03-17T13:16:32.549Z,2.26
2023-03-17T13:19:21.337Z,2.46
2023-03-17T13:22:15.578Z,1.71
2023-03-17T13:24:49.674Z,1.94
2023-03-17T13:27:46.595Z,1.74
2023-03-17T13:30:46.371Z,2.38
2023-03-17T13:33:25.128Z,2.07
2023-03-17T13:36:11.447Z,1.66
2023-03-17T13:39:17.800Z,1.97
2023-03-17T13:42:17.787Z,2.16
2023-03-17T13:45:17.917Z,2.01
2023-03-17T13:47:47.777Z,1.65
2023-03-17T13:50:23.176Z,1.99
2023-03-17T13:52:57.331Z,1.87
2023-03-17T13:55:41.702Z,1.70
2023-03-17T13:58:35.940Z,1.99
2023-03-17T14:01:12.431Z,1.23
2023-03-17T14:03:49.262Z,1.25
2023-03-17T14:06:21.523Z,1.31
2023-03-17T14:08:54.514Z,1.16
2023-03-17T14:11:30.985Z,1.77
2023-03-17T14:14:31.230Z,1.14
2023-03-17T14:17:11.191Z,1.26
2023-03-17T14:19:43.598Z,1.81
2023-03-17T14:22:24.803Z,1.47
2023-03-17T14:24:55.420Z,1.67
2023-03-17T14:27:26.359Z,1.13
2023-03-17T14:29:55.572Z,1.70
2023-03-17T14:32:27.178Z,1.67
2023-03-17T14:34:58.959Z,1.17
2023-03-17T14:37:29.944Z,1.16
2023-03-17T14:40:00.704Z,1.52
2023-03-17T14:42:31.624Z,1.38
2023-03-17T14:45:05.639Z,1.55
2023-03-17T14:47:40.902Z,1.54
2023-03-17T14:50:18.404Z,1.54
2023-03-17T14:52:47.706Z,1.35
2023-03-17T14:55:20.107Z,1.14
2023-03-17T14:57:54.626Z,1.56
2023-03-17T15:00:36.828Z,1.55
2023-03-17T15:03:20.347Z,1.43
2023-03-17T15:05:50.501Z,1.43
2023-03-17T15:08:43.193Z,1.48
2023-03-17T15:11:20.240Z,1.31
2023-03-17T15:13:50.521Z,1.42
2023-03-17T15:16:24.057Z,1.38
2023-03-17T15:19:06.839Z,1.25
2023-03-17T15:21:39.985Z,1.16
2023-03-17T15:24:25.298Z,1.32
2023-03-17T15:27:02.093Z,1.25
2023-03-17T15:29:31.404Z,1.22
2023-03-17T15:32:12.910Z,1.25
2023-03-17T15:34:43.710Z,1.13
2023-03-17T15:37:23.571Z,1.09
2023-03-17T15:39:53.379Z,1.17
2023-03-17T15:42:24.940Z,1.12
2023-03-17T15:44:54.661Z,1.07
2023-03-17T15:47:25.546Z,1.04
2023-03-17T15:50:00.310Z,0.98
2023-03-17T15:52:30.746Z,0.95
2023-03-17T15:55:03.572Z,0.92
2023-03-17T15:57:33.729Z,0.91
2023-03-17T16:00:03.065Z,0.85
2023-03-17T16:02:34.790Z,0.90
2023-03-17T16:05:17.555Z,0.73
2023-03-17T16:07:46.801Z,0.88
2023-03-17T16:10:21.482Z,0.86
2023-03-17T16:12:51.628Z,0.83
2023-03-17T16:15:23.748Z,0.76
2023-03-17T16:17:55.709Z,0.66
2023-03-17T16:20:28.976Z,0.68
2023-03-17T16:22:59.614Z,0.59
2023-03-17T16:25:30.794Z,0.45
2023-03-17T16:28:01.336Z,0.51
2023-03-17T16:30:32.538Z,0.50
2023-03-17T16:33:04.624Z,0.42
2023-03-17T16:35:36.321Z,0.31
2023-03-17T16:38:05.633Z,0.18
2023-03-17T16:40:37.613Z,0.29
2023-03-17T16:43:19.117Z,0.25
2023-03-17T16:45:55.364Z,0.13
2023-03-17T16:48:24.927Z,0.16
2023-03-17T16:50:56.107Z,0.13
2023-03-17T16:53:29.608Z,0.09
2023-03-17T16:55:58.871Z,0.04
2023-03-17T16:58:30.712Z,0.00
2023-03-17T17:01:02.976Z,0.00
2023-03-17T17:03:32.693Z,-0.20
2023-03-17T17:06:03.305Z,-0.04
2023-03-17T17:08:32.447Z,-0.09
2023-03-17T17:11:01.517Z,-0.11
2023-03-17T17:13:30.845Z,-0.18
2023-03-17T17:16:00.113Z,-0.18
2023-03-17T17:18:29.492Z,-0.21
2023-03-17T17:20:58.664Z,-0.24
2023-03-17T17:23:30.037Z,-0.55
2023-03-17T17:25:59.161Z,-0.44
2023-03-17T17:28:28.228Z,-0.33
2023-03-17T17:30:58.980Z,-0.41
2023-03-17T17:33:28.181Z,-0.32
2023-03-17T17:35:57.373Z,-0.35
2023-03-17T17:38:29.682Z,-0.64
2023-03-17T17:41:03.584Z,-0.40
2023-03-17T17:43:33.021Z,-0.43
2023-03-17T17:46:02.328Z,-0.43
2023-03-17T17:48:31.463Z,-0.41
2023-03-17T17:51:00.658Z,-0.42
2023-03-17T17:53:31.322Z,-0.58
2023-03-17T17:56:00.431Z,-0.76
2023-03-17T17:58:29.634Z,-0.44
2023-03-17T18:00:59.316Z,-0.43
2023-03-17T18:03:31.554Z,-0.49
2023-03-17T18:06:01.688Z,-0.46
2023-03-17T18:08:32.300Z,-0.49
2023-03-17T18:11:01.491Z,-0.69
2023-03-17T18:13:30.688Z,-0.60
2023-03-17T18:16:00.347Z,-0.55
2023-03-17T18:18:29.589Z,-0.61
2023-03-17T18:20:59.474Z,-0.76
2023-03-17T18:23:28.818Z,-0.69
2023-03-17T18:26:03.178Z,-0.76
2023-03-17T18:28:32.545Z,-0.68
2023-03-17T18:31:07.060Z,-1.03
2023-03-17T18:33:36.387Z,-0.88
2023-03-17T18:36:07.497Z,-0.79
2023-03-17T18:38:37.040Z,-0.82
2023-03-17T18:41:11.558Z,-1.02
2023-03-17T18:43:41.436Z,-0.95
2023-03-17T18:46:10.622Z,-0.95
2023-03-17T18:48:40.014Z,-1.05
2023-03-17T18:51:09.123Z,-1.12
2023-03-17T18:53:39.569Z,-1.12
2023-03-17T18:56:11.283Z,-1.25
2023-03-17T18:58:40.397Z,-1.33
2023-03-17T19:01:09.608Z,-1.33
2023-03-17T19:03:38.847Z,-1.43
2023-03-17T19:06:13.451Z,-1.82
2023-03-17T19:08:43.275Z,-1.72
2023-03-17T19:11:15.693Z,-1.82
2023-03-17T19:13:45.869Z,-1.82
2023-03-17T19:16:15.851Z,-1.90
2023-03-17T19:18:44.966Z,-1.98
2023-03-17T19:21:14.794Z,-2.07
2023-03-17T19:23:44.102Z,-2.24
2023-03-17T19:26:14.797Z,-2.38
2023-03-17T19:28:44.072Z,-2.27
2023-03-17T19:31:13.603Z,-2.39
2023-03-17T19:33:42.876Z,-2.54
2023-03-17T19:36:14.518Z,-2.57
2023-03-17T19:38:43.722Z,-2.50
2023-03-17T19:41:15.799Z,-2.54
2023-03-17T19:43:45.235Z,-2.60
2023-03-17T19:46:14.598Z,-2.78
2023-03-17T19:48:43.878Z,-2.65
2023-03-17T19:51:13.221Z,-2.68
2023-03-17T19:53:42.418Z,-2.72
2023-03-17T19:56:11.553Z,-2.73
2023-03-17T19:58:43.385Z,-2.77
2023-03-17T20:01:13.369Z,-2.83
2023-03-17T20:03:43.100Z,-2.94
2023-03-17T20:06:12.304Z,-2.88
2023-03-17T20:08:41.869Z,-2.91
2023-03-17T20:11:11.929Z,-2.98
2023-03-17T20:13:42.826Z,-3.14
2023-03-17T20:16:14.917Z,-3.04
2023-03-17T20:18:44.096Z,-3.08
2023-03-17T20:21:14.873Z,-3.10
2023-03-17T20:23:45.236Z,-3.40
2023-03-17T20:26:14.640Z,-3.65
2023-03-17T20:28:45.394Z,-3.77
2023-03-17T20:31:14.811Z,-3.76
2023-03-17T20:33:43.974Z,-3.23
2023-03-17T20:36:14.398Z,-4.12
2023-03-17T20:38:44.269Z,-3.27
2023-03-17T20:41:15.451Z,-3.85
2023-03-17T20:43:46.468Z,-3.35
2023-03-17T20:46:19.444Z,-3.95
2023-03-17T20:48:49.357Z,-4.17
2023-03-17T20:51:19.163Z,-3.90
2023-03-17T20:54:31.522Z,-4.15
2023-03-17T20:57:01.820Z,-4.20
2023-03-17T20:59:34.090Z,-4.19
2023-03-17T21:02:05.298Z,-4.12
2023-03-17T21:04:34.520Z,-4.18
2023-03-17T21:07:03.757Z,-4.41
2023-03-17T21:09:33.023Z,-3.86
2023-03-17T21:12:02.188Z,-3.77
2023-03-17T21:14:33.043Z,-3.81
2023-03-17T21:17:03.035Z,-4.26
2023-03-17T21:26:30.344Z,-3.92
2023-03-17T21:28:59.524Z,-4.48
2023-03-17T21:31:30.304Z,-3.97
2023-03-17T21:33:59.579Z,-4.01
2023-03-17T21:36:29.176Z,-4.71
2023-03-17T21:38:58.421Z,-5.18
2023-03-17T21:41:33.729Z,-4.90
2023-03-17T21:44:03.830Z,-4.80
2023-03-17T21:46:34.732Z,-4.97
2023-03-17T21:49:04.141Z,-4.44
2023-03-17T21:51:33.896Z,-4.85
2023-03-17T21:54:04.403Z,-4.45
2023-03-17T21:56:33.897Z,-4.56
2023-03-17T21:59:03.511Z,-4.31
2023-03-17T22:01:35.095Z,-4.90
2023-03-17T22:04:04.256Z,-4.87
2023-03-17T22:06:33.583Z,-5.09
2023-03-17T22:09:03.270Z,-5.41
2023-03-17T22:11:32.916Z,-4.64
2023-03-17T22:14:02.286Z,-4.50
2023-03-17T22:16:34.708Z,-5.35
2023-03-17T22:19:04.264Z,-4.98
2023-03-17T22:21:34.283Z,-5.27
2023-03-17T22:24:03.558Z,-4.61
2023-03-17T22:26:32.964Z,-4.91
2023-03-17T22:29:02.347Z,-5.15
2023-03-17T22:31:32.082Z,-5.14
2023-03-17T22:34:03.111Z,-5.56
2023-03-17T22:36:32.793Z,-5.57
2023-03-17T22:39:02.311Z,-5.15
2023-03-17T22:41:32.410Z,-5.44
2023-03-17T22:44:01.611Z,-5.59
2023-03-17T22:46:30.854Z,-5.16
2023-03-17T22:49:00.201Z,-5.42
2023-03-17T22:51:32.223Z,-5.93
2023-03-17T22:54:01.500Z,-5.65
2023-03-17T22:56:31.255Z,-4.98
2023-03-17T22:59:17.350Z,-5.29
2023-03-17T23:01:52.106Z,-5.63
2023-03-17T23:04:21.357Z,-5.72
2023-03-17T23:06:52.872Z,-5.89
2023-03-17T23:09:22.531Z,-5.13
2023-03-17T23:11:51.785Z,-5.95
2023-03-17T23:14:21.112Z,-5.18
2023-03-17T23:16:50.425Z,-6.02
2023-03-17T23:19:19.614Z,-5.80
2023-03-17T23:21:48.870Z,-5.27
2023-03-17T23:24:19.615Z,-5.28
2023-03-17T23:26:49.023Z,-5.50
2023-03-17T23:29:18.176Z,-5.34
2023-03-17T23:31:47.467Z,-5.44
2023-03-17T23:34:16.660Z,-5.35
2023-03-17T23:36:45.966Z,-5.36
2023-03-17T23:39:15.435Z,-5.99
2023-03-17T23:41:46.225Z,-6.16
2023-03-17T23:44:15.492Z,-6.23
2023-03-17T23:46:45.617Z,-5.51
2023-03-17T23:49:14.908Z,-6.09
2023-03-17T23:51:44.387Z,-5.79
2023-03-17T23:54:14.770Z,-6.66
2023-03-17T23:56:45.574Z,-5.66
2023-03-17T23:59:14.833Z,-5.90
